Time;durP1;ratioP1;P1;durP2;ratioP2;P2;SDS_P1;SDS_P2;PMS_P1;PMS_P2;Temp;Humidity;BMP_temperature;BMP_pressure;BME280_temperature;BME280_humidity;BME280_pressure;Samples;Min_cycle;Max_cycle;Signal;HPM_P1;HPM_P2
2022/04/02 00:00:56;;;;;;;6.72;2.78;;;;;;;1.13;89.23;101072.44;4985864;28;20037;-73
2022/04/02 00:03:22;;;;;;;4.15;2.13;;;;;;;1.13;90.03;101086.44;4986216;28;20433;-74
2022/04/02 00:05:48;;;;;;;4.75;2.67;;;;;;;1.07;90.61;101085.97;4984434;28;20034;-74
2022/04/02 00:08:13;;;;;;;4.82;2.63;;;;;;;1.02;91.46;101084.44;4984919;28;20372;-74
2022/04/02 00:10:39;;;;;;;10.50;3.80;;;;;;;1.02;91.84;101081.81;4986209;28;20030;-73
2022/04/02 00:13:04;;;;;;;9.25;3.58;;;;;;;1.05;92.43;101091.31;4986079;28;20038;-73
2022/04/02 00:15:30;;;;;;;5.70;2.77;;;;;;;1.09;92.42;101094.59;4985271;28;20072;-74
2022/04/02 00:17:55;;;;;;;6.20;3.45;;;;;;;1.03;92.53;101082.66;4985965;28;20573;-74
2022/04/02 00:20:21;;;;;;;5.30;2.90;;;;;;;0.97;92.66;101077.78;4982170;28;20072;-73
2022/04/02 00:25:31;;;;;;;5.97;2.72;;;;;;;0.92;92.71;101074.59;4985409;28;20398;-74
2022/04/02 00:27:56;;;;;;;6.93;2.53;;;;;;;0.82;92.50;101064.63;4985634;28;20018;-74
2022/04/02 00:30:23;;;;;;;5.57;2.70;;;;;;;0.81;92.72;101073.44;4985573;28;20280;-74
2022/04/02 00:32:48;;;;;;;4.47;2.20;;;;;;;0.86;92.57;101064.44;4985669;28;20041;-73
2022/04/02 00:35:14;;;;;;;5.93;2.80;;;;;;;0.86;92.12;101059.19;4984180;28;20030;-73
2022/04/02 00:37:40;;;;;;;3.80;2.10;;;;;;;0.82;91.78;101054.13;4984564;28;20277;-73
2022/04/02 00:40:07;;;;;;;3.58;1.88;;;;;;;0.77;91.25;101053.56;4968284;28;20121;-74
2022/04/02 00:42:32;;;;;;;6.03;2.45;;;;;;;0.70;91.01;101049.56;4985381;28;20030;-73
2022/04/02 00:44:58;;;;;;;5.53;1.90;;;;;;;0.68;90.74;101046.22;4984281;28;20041;-73
2022/04/02 00:47:23;;;;;;;8.48;3.08;;;;;;;0.66;90.60;101044.63;4974526;28;20026;-74
2022/04/02 00:49:53;;;;;;;8.68;2.20;;;;;;;0.60;90.48;101043.19;4990717;28;20454;-74
2022/04/02 00:52:21;;;;;;;4.15;2.40;;;;;;;0.57;90.54;101051.25;4974967;28;20120;-73
2022/04/02 00:54:49;;;;;;;2.85;2.35;;;;;;;0.55;90.58;101055.75;4982918;28;20186;-73
2022/04/02 00:57:15;;;;;;;4.22;2.47;;;;;;;0.51;90.56;101047.19;4992057;28;20029;-74
2022/04/02 00:59:40;;;;;;;4.68;2.28;;;;;;;0.51;90.38;101043.72;4990640;28;20038;-73
2022/04/02 01:02:06;;;;;;;7.23;2.43;;;;;;;0.50;90.78;101049.94;4974306;28;20038;-73
2022/04/02 01:04:32;;;;;;;4.18;2.58;;;;;;;0.47;90.57;101044.84;4990230;28;20125;-73
2022/04/02 01:06:59;;;;;;;5.90;2.13;;;;;;;0.43;90.94;101049.44;4990657;28;20165;-73
2022/04/02 01:09:26;;;;;;;4.63;2.10;;;;;;;0.37;91.20;101055.88;4958379;28;20492;-74
2022/04/02 01:11:54;;;;;;;8.55;2.42;;;;;;;0.29;91.80;101063.38;4990681;28;20115;-74
2022/04/02 01:14:20;;;;;;;4.60;2.90;;;;;;;0.32;92.07;101068.44;4973948;28;20038;-74
2022/04/02 01:16:48;;;;;;;6.25;2.30;;;;;;;0.32;92.23;101072.84;4990300;28;20030;-73
2022/04/02 01:19:19;;;;;;;3.83;2.28;;;;;;;0.26;92.43;101066.19;4965557;28;20548;-73
2022/04/02 01:21:46;;;;;;;5.30;2.85;;;;;;;0.29;92.25;101073.88;4974006;28;20046;-74
2022/04/02 01:24:23;;;;;;;6.78;2.78;;;;;;;0.22;92.18;101069.91;4966818;28;20121;-73
2022/04/02 01:26:52;;;;;;;10.15;2.92;;;;;;;0.18;92.47;101071.84;4974082;28;20034;-73
2022/04/02 01:29:20;;;;;;;7.47;2.30;;;;;;;0.18;92.69;101084.16;4981347;28;20554;-74
2022/04/02 01:31:52;;;;;;;7.53;3.15;;;;;;;0.19;93.01;101080.59;4975205;28;20030;-73
2022/04/02 01:34:21;;;;;;;8.32;3.13;;;;;;;0.26;92.87;101084.56;4974310;28;20109;-73
2022/04/02 01:36:48;;;;;;;8.15;2.67;;;;;;;0.26;92.81;101073.19;4973869;28;20022;-73
2022/04/02 01:39:20;;;;;;;5.03;2.70;;;;;;;0.16;92.89;101070.25;4990465;28;20030;-74
2022/04/02 01:41:46;;;;;;;10.98;3.08;;;;;;;0.08;93.42;101075.13;4957879;28;20126;-73
2022/04/02 01:44:16;;;;;;;7.20;3.05;;;;;;;0.05;93.94;101070.00;4980440;28;20033;-74
2022/04/02 01:46:41;;;;;;;5.53;2.40;;;;;;;-0.03;93.89;101068.66;4987958;28;20547;-74
2022/04/02 01:49:07;;;;;;;4.10;2.20;;;;;;;-0.05;94.02;101078.44;4991244;28;20033;-73
2022/04/02 01:51:33;;;;;;;9.57;2.63;;;;;;;0.10;94.50;101081.13;4980509;28;20035;-74
2022/04/02 01:53:59;;;;;;;7.22;2.42;;;;;;;0.01;94.17;101071.16;4998547;22;20053;-78
2022/04/02 01:56:24;;;;;;;5.13;2.27;;;;;;;-0.04;94.38;101076.66;5042210;28;20041;-77
2022/04/02 01:58:56;;;;;;;7.40;2.80;;;;;;;-0.05;94.42;101080.19;5035236;28;21199;-77
2022/04/02 02:01:23;;;;;;;7.00;2.95;;;;;;;-0.12;94.25;101077.06;5014988;28;20025;-76
2022/04/02 02:03:49;;;;;;;5.70;2.60;;;;;;;-0.11;94.60;101070.91;5031028;28;20476;-76
2022/04/02 02:06:15;;;;;;;7.23;3.13;;;;;;;-0.09;95.09;101083.94;5031083;28;20029;-75
2022/04/02 02:08:44;;;;;;;5.75;3.08;;;;;;;-0.11;95.52;101077.94;5031075;28;20036;-76
2022/04/02 02:11:24;;;;;;;4.25;2.70;;;;;;;-0.06;95.23;101078.50;5016721;28;20512;-75
2022/04/02 02:14:08;;;;;;;6.75;2.80;;;;;;;-0.15;95.14;101074.63;5045382;28;20079;-76
2022/04/02 02:16:36;;;;;;;7.32;2.47;;;;;;;-0.19;95.20;101067.84;5027600;28;20095;-77
2022/04/02 02:19:01;;;;;;;9.20;3.80;;;;;;;-0.27;95.33;101070.91;5026502;28;20060;-78
2022/04/02 02:21:26;;;;;;;9.40;3.40;;;;;;;-0.23;95.71;101085.53;5030582;28;20047;-77
2022/04/02 02:23:52;;;;;;;6.53;3.30;;;;;;;-0.28;95.84;101079.72;5014370;28;20021;-78
2022/04/02 02:26:17;;;;;;;8.32;3.10;;;;;;;-0.28;95.76;101078.84;5027229;28;20091;-78
2022/04/02 02:28:43;;;;;;;9.87;2.67;;;;;;;-0.32;95.85;101082.59;5014161;28;20059;-77
2022/04/02 02:31:15;;;;;;;6.82;2.97;;;;;;;-0.27;95.91;101076.16;5015067;28;20334;-78
2022/04/02 02:36:26;;;;;;;4.88;2.38;;;;;;;-0.38;95.95;101072.41;5030949;28;20025;-77
2022/04/02 02:38:59;;;;;;;6.75;2.78;;;;;;;-0.36;96.12;101070.56;5025025;28;20025;-77
2022/04/02 02:41:44;;;;;;;2.55;1.70;;;;;;;-0.41;95.83;101078.69;5016563;28;20123;-77
2022/04/02 02:44:21;;;;;;;5.65;2.70;;;;;;;-0.47;96.20;101076.38;5015255;28;20068;-76
2022/04/02 02:46:52;;;;;;;6.43;1.77;;;;;;;-0.55;96.34;101074.19;5014670;28;20035;-76
2022/04/02 02:49:26;;;;;;;5.57;3.05;;;;;;;-0.61;96.75;101076.28;5029916;28;20051;-76
2022/04/02 02:51:55;;;;;;;5.05;2.22;;;;;;;-0.62;96.84;101083.31;5029970;28;20037;-76
2022/04/02 02:54:25;;;;;;;7.75;2.15;;;;;;;-0.59;97.02;101084.91;5014006;28;20024;-77
2022/04/02 02:56:53;;;;;;;6.57;2.67;;;;;;;-0.50;96.66;101090.50;5029995;28;20083;-75
2022/04/02 02:59:19;;;;;;;5.72;2.13;;;;;;;-0.53;96.22;101088.06;5030212;28;20063;-76
2022/04/02 03:01:44;;;;;;;6.63;2.58;;;;;;;-0.48;95.93;101088.66;5030160;28;20068;-75
2022/04/02 03:04:10;;;;;;;5.70;2.20;;;;;;;-0.53;95.57;101082.81;5013205;28;20473;-77
2022/04/02 03:06:35;;;;;;;3.33;1.97;;;;;;;-0.63;95.13;101073.75;5013317;28;20120;-77
2022/04/02 03:09:03;;;;;;;3.42;2.25;;;;;;;-0.73;95.56;101068.16;5009861;28;20430;-76
2022/04/02 03:11:28;;;;;;;4.65;2.45;;;;;;;-0.75;95.67;101077.91;5011703;28;20033;-77
2022/04/02 03:13:55;;;;;;;;;;;;;;;-0.79;95.86;101068.50;5012634;28;20037;-75
2022/04/02 03:16:21;;;;;;;2.78;1.77;;;;;;;-0.87;95.93;101084.63;5029996;28;19920;-77
2022/04/02 03:19:02;;;;;;;4.88;2.22;;;;;;;-0.89;95.71;101083.88;5029912;28;20024;-78
2022/04/02 03:21:29;;;;;;;5.75;2.67;;;;;;;-0.95;96.03;101086.78;5029756;28;20341;-76
2022/04/02 03:23:56;;;;;;;7.53;1.95;;;;;;;-0.97;96.20;101086.03;5029427;28;20548;-78
2022/04/02 03:26:24;;;;;;;5.07;2.50;;;;;;;-0.92;96.47;101089.25;5012750;28;20027;-77
2022/04/02 03:28:52;;;;;;;6.95;2.58;;;;;;;-0.99;96.24;101087.88;5029294;28;20074;-76
2022/04/02 03:31:21;;;;;;;4.95;2.17;;;;;;;-1.07;96.46;101088.28;5018443;28;20027;-76
2022/04/02 03:33:49;;;;;;;7.80;2.92;;;;;;;-1.12;96.57;101092.06;5029045;28;20546;-77
2022/04/02 03:36:15;;;;;;;4.15;2.45;;;;;;;-1.16;96.73;101095.78;5029001;28;20029;-75
2022/04/02 03:38:41;;;;;;;8.02;2.83;;;;;;;-1.24;97.11;101090.06;5029461;28;20021;-76
2022/04/02 03:41:13;;;;;;;6.88;2.50;;;;;;;-1.21;97.20;101093.38;5029003;28;20029;-77
2022/04/02 03:43:39;;;;;;;4.35;2.30;;;;;;;-1.17;97.13;101104.53;5029178;28;20040;-75
2022/04/02 03:48:49;;;;;;;4.90;2.47;;;;;;;-1.15;95.75;101089.59;5030157;28;20037;-76
2022/04/02 03:51:14;;;;;;;7.22;2.83;;;;;;;-1.18;95.29;101087.97;5030033;28;20020;-76
2022/04/02 03:53:41;;;;;;;4.57;2.15;;;;;;;-1.22;95.37;101085.59;5029488;28;20044;-75
2022/04/02 03:56:10;;;;;;;3.30;2.17;;;;;;;-1.25;95.46;101091.00;5012852;28;20017;-76
2022/04/02 03:58:41;;;;;;;5.45;2.13;;;;;;;-1.31;95.42;101082.53;5010733;28;20505;-77
2022/04/02 04:01:11;;;;;;;3.15;2.00;;;;;;;-1.34;95.94;101092.31;5029457;28;20036;-77
2022/04/02 04:03:37;;;;;;;5.93;2.35;;;;;;;-1.21;96.10;101103.03;5029920;28;20021;-77
2022/04/02 04:06:03;;;;;;;6.35;2.05;;;;;;;-1.22;96.42;101106.56;5029016;28;20128;-76
2022/04/02 04:08:31;;;;;;;3.45;2.25;;;;;;;-1.18;96.37;101110.72;5009963;28;20887;-77
2022/04/02 04:10:57;;;;;;;6.88;2.40;;;;;;;-1.23;96.21;101107.50;5028899;28;20379;-77
2022/04/02 04:13:23;;;;;;;7.20;1.95;;;;;;;-1.24;96.81;101114.50;5047101;28;20036;-77
2022/04/02 04:15:50;;;;;;;5.75;2.63;;;;;;;-1.27;97.10;101120.72;5029054;28;20872;-77
2022/04/02 04:18:15;;;;;;;4.70;2.20;;;;;;;-1.30;97.75;101118.28;5047821;28;20052;-76
2022/04/02 04:20:42;;;;;;;6.28;2.35;;;;;;;-1.37;97.73;101118.66;5028871;28;20032;-77
2022/04/02 04:23:12;;;;;;;7.18;2.20;;;;;;;-1.46;97.99;101117.34;5014136;28;20155;-77
2022/04/02 04:25:39;;;;;;;5.00;1.83;;;;;;;-1.45;98.46;101118.19;5029048;28;20500;-76
2022/04/02 04:28:06;;;;;;;3.75;2.03;;;;;;;-1.49;98.78;101126.19;5029815;28;20263;-77
2022/04/02 04:30:32;;;;;;;7.50;2.05;;;;;;;-1.51;98.60;101121.97;5013588;28;20029;-77
2022/04/02 04:32:58;;;;;;;6.95;2.20;;;;;;;-1.58;98.96;101131.91;5029541;28;20036;-77
2022/04/02 04:35:24;;;;;;;6.68;2.63;;;;;;;-1.64;98.90;101128.72;5012856;28;20478;-78
2022/04/02 04:37:51;;;;;;;;;;;;;;;-1.64;99.45;101136.56;5047470;28;20036;-77
2022/04/02 04:40:22;;;;;;;5.10;2.85;;;;;;;-1.67;99.67;101136.72;5030358;28;19917;-77
2022/04/02 04:42:48;;;;;;;4.72;2.33;;;;;;;-1.71;99.77;101146.50;5015337;28;20032;-78
2022/04/02 04:45:17;;;;;;;3.28;1.42;;;;;;;-1.78;99.96;101145.97;5011119;28;20055;-75
2022/04/02 04:47:45;;;;;;;4.03;2.13;;;;;;;-1.70;100.00;101151.66;5028426;28;20032;-75
2022/04/02 04:50:11;;;;;;;4.05;1.80;;;;;;;-1.73;100.00;101143.97;5030896;28;20112;-77
2022/04/02 04:52:37;;;;;;;2.75;1.70;;;;;;;-1.71;100.00;101146.50;5030294;28;20112;-78
2022/04/02 04:55:05;;;;;;;7.10;2.50;;;;;;;-1.72;99.86;101150.88;5030548;28;20820;-75
2022/04/02 04:57:31;;;;;;;6.90;2.05;;;;;;;-1.71;99.77;101151.72;5022536;28;20025;-78
2022/04/02 05:00:05;;;;;;;3.63;1.80;;;;;;;-1.69;99.55;101144.66;5031122;28;20021;-78
2022/04/02 05:02:31;;;;;;;10.00;2.20;;;;;;;-1.67;98.84;101149.81;5030635;28;20029;-78
2022/04/02 05:04:58;;;;;;;3.72;1.60;;;;;;;-1.68;98.24;101143.75;5014078;28;20082;-77
2022/04/02 05:07:24;;;;;;;5.97;1.75;;;;;;;-1.68;97.80;101140.28;5030527;28;20025;-78
2022/04/02 05:09:54;;;;;;;2.45;1.30;;;;;;;-1.63;97.16;101143.53;5030250;28;20893;-74
2022/04/02 05:12:20;;;;;;;6.65;1.77;;;;;;;-1.59;96.27;101134.56;5014057;28;20112;-78
2022/04/02 05:14:49;;;;;;;2.88;1.30;;;;;;;-1.55;95.44;101131.72;5013766;28;20025;-78
2022/04/02 05:17:17;;;;;;;4.75;1.90;;;;;;;-1.53;94.49;101123.81;5030273;28;20482;-78
2022/04/02 05:19:44;;;;;;;3.50;1.70;;;;;;;-1.50;93.71;101118.41;5030056;28;20421;-78
2022/04/02 05:22:13;;;;;;;3.10;1.63;;;;;;;-1.47;93.00;101123.53;5029267;28;20071;-75
2022/04/02 05:24:45;;;;;;;7.70;2.15;;;;;;;-1.40;92.13;101118.84;5027129;28;20044;-77
2022/04/02 05:27:12;;;;;;;3.42;2.00;;;;;;;-1.37;91.17;101114.25;5028069;28;20075;-77
2022/04/02 05:29:37;;;;;;;6.33;2.63;;;;;;;-1.34;90.55;101102.78;5011601;28;20049;-76
2022/04/02 05:32:03;;;;;;;9.02;2.28;;;;;;;-1.25;89.93;101109.34;5012963;28;20025;-75
2022/04/02 05:34:30;;;;;;;4.05;1.30;;;;;;;-1.25;89.10;101091.84;5031617;28;20021;-75
2022/04/02 05:36:57;;;;;;;4.00;1.85;;;;;;;-1.20;88.22;101084.59;5022110;28;20029;-76
2022/04/02 05:39:23;;;;;;;2.10;1.20;;;;;;;-1.10;87.96;101090.19;5015797;28;20515;-77
2022/04/02 05:41:48;;;;;;;3.05;1.42;;;;;;;-1.07;87.43;101088.28;5015138;28;20095;-78
2022/04/02 05:44:14;;;;;;;;;;;;;;;-0.97;86.83;101095.66;5016883;28;20020;-76
2022/04/02 05:46:40;;;;;;;3.42;1.30;;;;;;;-0.87;85.94;101084.63;5016036;28;20335;-76
2022/04/02 05:49:05;;;;;;;4.07;1.45;;;;;;;-0.79;85.40;101076.34;5016387;28;20025;-76
2022/04/02 05:51:31;;;;;;;3.80;1.60;;;;;;;-0.68;84.65;101078.38;5031820;28;20037;-78
2022/04/02 05:53:57;;;;;;;5.32;1.45;;;;;;;-0.61;84.13;101071.88;5031583;28;20111;-76
2022/04/02 05:56:23;;;;;;;3.70;1.27;;;;;;;-0.53;83.70;101068.88;5048779;28;20025;-78
2022/04/02 05:58:51;;;;;;;5.85;2.58;;;;;;;-0.36;82.77;101071.41;5032132;28;20043;-77
2022/04/02 06:01:17;;;;;;;7.32;2.20;;;;;;;-0.23;81.49;101050.59;5049356;28;20029;-77
2022/04/02 06:03:43;;;;;;;3.45;1.50;;;;;;;0.39;79.60;101042.66;5049723;28;20020;-77
2022/04/02 06:06:09;;;;;;;3.53;1.55;;;;;;;1.55;77.00;101045.25;5014862;28;20029;-76
2022/04/02 06:08:34;;;;;;;3.20;1.25;;;;;;;2.16;73.42;100957.97;5031651;28;20132;-75
2022/04/02 06:11:01;;;;;;;4.25;1.70;;;;;;;2.63;69.56;100874.78;5048720;28;20116;-75
2022/04/02 06:13:26;;;;;;;3.22;1.02;;;;;;;3.38;67.32;100862.28;5030946;28;20025;-75
2022/04/02 06:15:52;;;;;;;1.25;1.08;;;;;;;3.79;64.32;100787.06;5032098;28;20040;-76
2022/04/02 06:18:18;;;;;;;3.00;1.10;;;;;;;4.25;62.02;100750.91;5016459;28;20116;-77
2022/04/02 06:20:45;;;;;;;2.78;1.42;;;;;;;4.70;60.19;100728.84;5031631;28;20037;-77
2022/04/02 06:23:11;;;;;;;2.47;0.90;;;;;;;4.85;58.33;100658.81;5031769;28;20486;-75
2022/04/02 06:25:36;;;;;;;3.20;1.13;;;;;;;5.03;57.27;100635.25;5049839;28;20036;-77
2022/04/02 06:28:01;;;;;;;4.93;1.83;;;;;;;5.34;56.45;100645.88;5032192;28;20021;-77
2022/04/02 06:30:27;;;;;;;2.67;1.10;;;;;;;5.53;55.04;100595.69;5049082;28;20025;-77
2022/04/02 06:32:53;;;;;;;3.53;1.20;;;;;;;5.30;54.98;100584.44;5048187;28;20028;-77
2022/04/02 06:35:19;;;;;;;;;;;;;;;5.54;54.29;100596.50;5015217;28;20752;-76
2022/04/02 06:37:46;;;;;;;1.15;0.88;;;;;;;5.68;54.25;100635.88;5015785;28;19939;-76
2022/04/02 06:40:12;;;;;;;1.60;0.90;;;;;;;6.03;53.76;100639.94;5032457;28;20060;-77
2022/04/02 06:42:38;;;;;;;5.10;1.17;;;;;;;5.95;53.25;100629.16;5012528;28;20564;-77
2022/04/02 06:45:07;;;;;;;1.52;0.90;;;;;;;6.29;52.99;100662.28;5031294;28;20035;-77
2022/04/02 06:47:33;;;;;;;4.57;1.15;;;;;;;6.28;53.70;100716.31;5014317;28;20028;-76
2022/04/02 06:50:03;;;;;;;2.53;1.20;;;;;;;6.06;53.72;100706.78;5022827;28;20033;-78
2022/04/02 06:52:28;;;;;;;1.98;1.08;;;;;;;5.92;53.52;100657.59;5031224;28;20048;-77
2022/04/02 06:54:54;;;;;;;3.00;1.10;;;;;;;5.87;52.62;100622.69;5030466;28;20032;-75
2022/04/02 06:57:21;;;;;;;1.97;0.70;;;;;;;5.69;52.30;100584.59;5022950;28;20090;-76
2022/04/02 06:59:47;;;;;;;2.65;0.90;;;;;;;5.17;52.17;100472.63;5048153;28;20100;-77
2022/04/02 07:02:13;;;;;;;1.75;0.63;;;;;;;5.18;52.23;100521.97;5030380;28;20029;-77
2022/04/02 07:04:39;;;;;;;2.63;0.90;;;;;;;5.28;52.68;100575.78;5030557;28;20486;-77
2022/04/02 07:07:04;;;;;;;0.73;0.70;;;;;;;5.12;52.73;100549.78;5030433;28;20029;-76
2022/04/02 07:09:29;;;;;;;2.97;1.37;;;;;;;5.19;53.11;100632.16;5030800;28;20063;-76
2022/04/02 07:11:55;;;;;;;2.87;1.00;;;;;;;5.24;53.43;100680.25;5014372;28;20032;-76
2022/04/02 07:14:21;;;;;;;2.67;1.27;;;;;;;5.28;53.15;100626.06;5030138;28;20021;-77
2022/04/02 07:16:47;;;;;;;2.92;1.00;;;;;;;5.11;53.91;100690.19;5031050;28;20043;-78
2022/04/02 07:19:13;;;;;;;1.67;0.83;;;;;;;5.09;53.56;100674.44;5048252;28;20032;-77
2022/04/02 07:21:41;;;;;;;3.17;1.00;;;;;;;5.27;53.24;100693.25;5048955;28;20040;-76
2022/04/02 07:24:07;;;;;;;2.85;1.20;;;;;;;4.91;53.67;100679.44;5030953;28;20497;-77
2022/04/02 07:26:32;;;;;;;3.10;1.35;;;;;;;4.89;54.35;100723.72;5029399;28;20060;-77
2022/04/02 07:28:59;;;;;;;1.20;0.70;;;;;;;5.04;54.56;100750.72;5033963;28;20033;-76
2022/04/02 07:31:25;;;;;;;1.45;1.00;;;;;;;5.01;53.68;100705.97;5014742;28;20033;-76
2022/04/02 07:33:50;;;;;;;4.70;1.37;;;;;;;5.12;54.13;100761.50;5030367;28;20021;-78
2022/04/02 07:36:54;;;;;;;1.70;1.00;;;;;;;4.90;53.78;100693.66;5030275;28;20402;-77
2022/04/02 07:39:26;;;;;;;1.25;0.82;;;;;;;5.52;53.77;100805.84;5042233;28;20039;-77
2022/04/02 07:42:19;;;;;;;3.17;1.08;;;;;;;4.81;53.24;100628.28;5029605;28;20037;-76
2022/04/02 07:45:01;;;;;;;2.22;1.23;;;;;;;5.75;53.89;100870.16;5029141;28;20045;-76
2022/04/02 07:47:30;;;;;;;1.98;1.00;;;;;;;5.95;53.05;100802.28;5048251;28;20033;-75
2022/04/02 07:50:04;;;;;;;4.47;1.90;;;;;;;5.81;53.56;100837.84;5029231;28;20556;-77
2022/04/02 07:52:31;;;;;;;7.68;3.65;;;;;;;6.85;57.12;101146.47;5030434;28;20044;-77
2022/04/02 07:54:58;;;;;;;2.58;1.58;;;;;;;6.63;54.38;100937.84;5029065;28;20036;-77
2022/04/02 07:57:44;;;;;;;2.55;1.75;;;;;;;7.51;54.60;101066.47;5028094;28;20033;-77
2022/04/02 08:00:12;;;;;;;1.75;1.55;;;;;;;7.39;51.86;100860.34;5024555;28;20041;-76
2022/04/02 08:02:43;;;;;;;4.65;1.55;;;;;;;8.04;50.96;100881.88;5025809;28;20025;-77
2022/04/02 08:05:12;;;;;;;5.20;2.22;;;;;;;8.14;51.75;100966.94;5028771;28;20549;-77
2022/04/02 08:07:43;;;;;;;1.50;1.20;;;;;;;7.96;48.24;100685.00;5046058;28;20033;-77
2022/04/02 08:10:13;;;;;;;1.80;1.10;;;;;;;6.89;47.25;100372.09;5045980;28;20520;-77
2022/04/02 08:12:46;;;;;;;3.88;1.02;;;;;;;7.27;47.46;100530.34;5028083;28;20505;-77
2022/04/02 08:15:22;;;;;;;2.70;1.10;;;;;;;7.17;46.24;100426.03;5027612;28;20029;-77
2022/04/02 08:17:54;;;;;;;1.33;0.60;;;;;;;7.24;46.02;100466.09;5012066;28;20671;-77
2022/04/02 08:20:20;;;;;;;2.65;1.17;;;;;;;7.16;46.83;100520.78;5027756;28;20036;-77
2022/04/02 08:22:46;;;;;;;2.70;1.48;;;;;;;7.32;46.62;100554.66;5045733;28;20041;-77
2022/04/02 08:25:13;;;;;;;2.63;1.35;;;;;;;7.51;47.29;100630.75;5019486;28;20024;-77
2022/04/02 08:27:46;;;;;;;2.45;1.42;;;;;;;7.67;46.64;100605.41;5027975;28;20039;-76
2022/04/02 08:30:17;;;;;;;2.22;1.38;;;;;;;8.06;46.67;100696.44;5011448;28;20062;-77
2022/04/02 08:32:58;;;;;;;2.67;1.25;;;;;;;8.07;45.66;100585.59;5045504;28;20032;-77
2022/04/02 08:35:38;;;;;;;3.25;2.10;;;;;;;8.46;45.47;100647.38;5010831;28;20044;-76
2022/04/02 08:38:19;;;;;;;3.17;1.55;;;;;;;7.81;45.08;100448.94;5019955;28;20036;-77
2022/04/02 08:41:04;;;;;;;2.53;1.48;;;;;;;8.40;44.69;100568.97;5017333;28;20162;-77
2022/04/02 08:43:32;;;;;;;4.38;1.45;;;;;;;8.72;43.48;100556.13;5045381;28;20045;-77
2022/04/02 08:46:23;;;;;;;2.45;0.98;;;;;;;8.61;43.51;100526.09;5027381;28;20529;-77
2022/04/02 08:49:05;;;;;;;1.77;1.25;;;;;;;8.98;43.43;100566.78;5027069;28;20040;-77
2022/04/02 08:51:41;;;;;;;2.30;1.00;;;;;;;9.21;43.50;100609.72;5027588;28;20037;-77
2022/04/02 08:54:26;;;;;;;1.35;1.17;;;;;;;8.73;43.15;100470.78;5019864;28;20067;-77
2022/04/02 08:56:59;;;;;;;3.70;1.15;;;;;;;9.03;43.83;100615.06;5013343;28;20115;-77
2022/04/02 08:59:38;;;;;;;2.22;1.50;;;;;;;9.14;45.07;100726.69;5045926;28;20825;-77
2022/04/02 09:02:25;;;;;;;3.08;1.40;;;;;;;9.68;44.20;100742.59;5020098;28;20110;-77
2022/04/02 09:05:08;;;;;;;3.50;1.65;;;;;;;10.17;42.89;100710.84;5044237;28;20406;-77
2022/04/02 09:08:16;;;;;;;4.18;1.33;;;;;;;9.81;42.00;100529.69;5013621;28;20029;-77
2022/04/02 09:10:58;;;;;;;2.10;1.05;;;;;;;9.98;41.49;100513.75;5021083;28;20035;-77
2022/04/02 09:14:01;;;;;;;3.30;1.00;;;;;;;9.88;41.72;100546.72;5018137;28;20510;-76
2022/04/02 09:16:33;;;;;;;5.63;1.70;;;;;;;10.48;41.38;100616.88;5018883;28;20025;-78
2022/04/02 09:19:20;;;;;;;4.43;1.30;;;;;;;8.49;41.01;100165.50;5032044;28;20805;-77
2022/04/02 09:21:58;;;;;;;2.50;1.00;;;;;;;9.51;41.92;100529.25;5015106;28;20063;-77
2022/04/02 09:24:33;;;;;;;3.15;1.38;;;;;;;9.44;41.07;100447.47;5015181;28;20029;-77
2022/04/02 09:27:50;;;;;;;2.55;1.42;;;;;;;10.08;41.47;100623.78;5049704;28;20710;-78
2022/04/02 09:30:22;;;;;;;4.75;1.30;;;;;;;9.71;41.34;100500.50;5025491;28;20481;-77
2022/04/02 09:33:15;;;;;;;2.58;1.27;;;;;;;9.91;40.83;100508.22;5031839;28;20035;-77
2022/04/02 09:36:03;;;;;;;2.33;1.20;;;;;;;10.08;41.64;100611.25;5049367;28;20029;-77
2022/04/02 09:38:43;;;;;;;3.15;1.30;;;;;;;10.32;41.66;100634.56;5031025;28;20032;-77
2022/04/02 09:41:15;;;;;;;3.33;1.35;;;;;;;10.71;41.55;100718.53;5024966;28;20077;-78
2022/04/02 09:43:51;;;;;;;2.30;1.65;;;;;;;10.90;41.38;100722.75;5032200;28;20079;-77
2022/04/02 09:46:49;;;;;;;3.05;1.42;;;;;;;9.97;41.32;100478.22;5016610;28;20025;-78
2022/04/02 09:49:49;;;;;;;4.10;1.30;;;;;;;10.48;41.80;100663.09;5026575;28;20052;-76
2022/04/02 09:52:22;;;;;;;2.85;1.42;;;;;;;9.99;41.51;100515.38;5033066;28;20056;-77
2022/04/02 09:55:07;;;;;;;1.77;1.42;;;;;;;10.02;41.45;100526.59;5015545;28;20111;-78
2022/04/02 09:57:52;;;;;;;1.85;1.20;;;;;;;9.21;41.47;100360.16;5015637;28;20406;-77
2022/04/02 10:00:18;;;;;;;3.10;1.55;;;;;;;9.77;40.36;100427.03;5046337;28;20087;-77
2022/04/02 10:03:06;;;;;;;4.57;1.50;;;;;;;9.58;40.73;100430.84;5032546;28;20028;-78
2022/04/02 10:06:10;;;;;;;1.80;1.00;;;;;;;9.88;39.46;100380.53;5031635;28;20037;-77
2022/04/02 10:08:47;;;;;;;1.50;0.80;;;;;;;10.23;39.83;100495.91;4990563;28;20048;-77
2022/04/02 10:11:18;;;;;;;3.30;1.00;;;;;;;10.48;38.75;100476.25;5024225;28;20103;-77
2022/04/02 10:13:44;;;;;;;2.78;1.00;;;;;;;10.56;38.83;100462.06;5048581;28;20037;-77
2022/04/02 10:16:12;;;;;;;;;;;;;;;9.65;38.65;100173.31;5050047;28;20024;-77
2022/04/02 10:18:38;;;;;;;2.20;1.10;;;;;;;10.65;39.30;100510.94;5014608;28;19913;-77
2022/04/02 10:21:05;;;;;;;1.55;1.15;;;;;;;9.63;38.83;100161.97;5049877;28;20143;-78
2022/04/02 10:23:35;;;;;;;2.78;1.40;;;;;;;9.77;39.18;100304.41;5050152;28;20973;-78
2022/04/02 10:26:23;;;;;;;4.00;1.88;;;;;;;10.28;39.63;100467.78;5031369;28;20037;-77
2022/04/02 10:28:56;;;;;;;3.67;1.65;;;;;;;10.53;39.48;100511.28;5031644;28;20521;-77
2022/04/02 10:31:30;;;;;;;3.30;1.13;;;;;;;11.13;37.62;100463.75;5049344;28;20082;-78
2022/04/02 10:34:03;;;;;;;21.70;1.80;;;;;;;11.57;37.82;100546.09;5031013;28;20037;-78
2022/04/02 10:36:32;;;;;;;1.23;1.13;;;;;;;11.63;37.32;100491.91;5049372;28;20044;-78
2022/04/02 10:38:58;;;;;;;6.18;1.98;;;;;;;11.52;37.28;100438.81;5015686;28;20025;-77
2022/04/02 10:41:28;;;;;;;2.28;1.45;;;;;;;10.94;37.95;100396.38;5015316;28;20032;-80
2022/04/02 10:44:08;;;;;;;5.65;1.40;;;;;;;11.24;38.12;100499.94;5031236;28;20044;-78
2022/04/02 10:46:34;;;;;;;3.38;1.40;;;;;;;10.74;37.78;100355.88;5049314;28;20033;-76
2022/04/02 10:49:05;;;;;;;2.77;1.60;;;;;;;10.58;38.53;100385.31;5032264;28;20568;-77
2022/04/02 10:51:32;;;;;;;2.08;1.17;;;;;;;11.38;38.25;100542.84;5014921;28;20272;-77
2022/04/02 10:54:04;;;;;;;4.28;1.70;;;;;;;11.14;38.38;100486.78;5031562;28;20428;-78
2022/04/02 10:56:35;;;;;;;2.28;1.20;;;;;;;10.62;38.86;100423.19;5031602;28;20498;-77
2022/04/02 10:59:00;;;;;;;1.70;1.23;;;;;;;11.44;37.94;100538.63;5032635;28;20422;-78
2022/04/02 11:01:26;;;;;;;2.80;1.30;;;;;;;11.62;37.78;100541.06;5050322;28;20021;-78
2022/04/02 11:03:56;;;;;;;2.08;1.20;;;;;;;10.92;38.75;100461.66;5031681;28;20037;-78
2022/04/02 11:06:48;;;;;;;2.42;1.15;;;;;;;11.45;37.67;100512.72;5050098;28;20478;-78
2022/04/02 11:09:36;;;;;;;2.83;1.13;;;;;;;11.59;36.91;100434.47;5025218;28;20037;-77
2022/04/02 11:12:07;;;;;;;2.03;1.17;;;;;;;11.93;36.30;100435.94;5015623;28;20025;-78
2022/04/02 11:14:45;;;;;;;3.17;1.33;;;;;;;11.39;36.39;100346.69;5015648;28;20485;-78
2022/04/02 11:17:34;;;;;;;1.80;1.13;;;;;;;11.26;35.96;100316.22;5008783;28;20037;-78
2022/04/02 11:20:09;;;;;;;1.90;0.82;;;;;;;11.63;36.04;100368.91;5015563;28;20252;-77
2022/04/02 11:22:50;;;;;;;1.45;1.00;;;;;;;11.82;35.99;100423.75;5014973;28;20044;-78
2022/04/02 11:25:44;;;;;;;2.28;0.98;;;;;;;11.87;35.72;100364.38;5017836;28;20059;-78
2022/04/02 11:28:17;;;;;;;1.85;1.00;;;;;;;11.33;37.39;100421.41;5017383;28;20056;-77
2022/04/02 11:30:49;;;;;;;4.53;1.58;;;;;;;10.93;37.87;100369.81;5050132;28;20033;-77
2022/04/02 11:33:20;;;;;;;2.45;1.25;;;;;;;11.60;37.38;100502.97;5049500;28;20041;-77
2022/04/02 11:35:57;;;;;;;1.20;1.10;;;;;;;11.94;36.34;100472.34;5031367;28;20036;-77
2022/04/02 11:38:39;;;;;;;1.42;1.17;;;;;;;10.47;37.29;100231.72;5050032;28;20079;-77
2022/04/02 11:41:20;;;;;;;2.33;1.45;;;;;;;11.23;37.83;100485.75;5015036;28;20494;-78
2022/04/02 11:43:51;;;;;;;3.33;1.23;;;;;;;11.58;36.88;100430.09;5015500;28;20037;-77
2022/04/02 11:46:19;;;;;;;3.65;1.05;;;;;;;10.48;36.88;100155.97;5031368;28;20033;-78
2022/04/02 11:48:57;;;;;;;4.50;1.30;;;;;;;11.13;37.30;100388.94;5031923;28;20017;-78
2022/04/02 11:51:30;;;;;;;2.25;1.20;;;;;;;11.50;37.34;100489.00;5049632;28;20083;-77
2022/04/02 11:54:02;;;;;;;2.33;1.27;;;;;;;11.24;36.72;100328.91;5049336;28;20111;-77